Time;durP1;ratioP1;P1;durP2;ratioP2;P2;SDS_P1;SDS_P2;PMS_P1;PMS_P2;Temp;Humidity;BMP_temperature;BMP_pressure;BME280_temperature;BME280_humidity;BME280_pressure;Samples;Min_cycle;Max_cycle;Signal;HPM_P1;HPM_P2
2021/04/02 00:01:43;;;;;;;21.13;12.27;;;11.90;91.20;;;;;;5115671;28;20211;-65
2021/04/02 00:04:09;;;;;;;21.83;13.30;;;12.00;91.30;;;;;;5116843;28;20598;-65
2021/04/02 00:06:35;;;;;;;18.03;12.10;;;12.00;91.50;;;;;;5116087;28;20548;-65
2021/04/02 00:09:03;;;;;;;20.07;12.60;;;11.90;91.50;;;;;;5116346;28;20685;-65
2021/04/02 00:11:29;;;;;;;22.93;12.87;;;11.90;91.50;;;;;;5117195;28;20207;-67
2021/04/02 00:13:56;;;;;;;18.47;12.63;;;11.90;91.60;;;;;;5116261;28;20207;-64
2021/04/02 00:16:22;;;;;;;23.97;14.07;;;11.90;91.70;;;;;;5116594;28;20277;-64
2021/04/02 00:18:48;;;;;;;26.23;13.43;;;11.90;91.70;;;;;;5117266;28;20203;-67
2021/04/02 00:21:16;;;;;;;21.27;13.10;;;11.90;91.70;;;;;;5116166;28;20266;-64
2021/04/02 00:23:43;;;;;;;22.90;11.63;;;11.90;91.70;;;;;;5116589;28;21055;-65
2021/04/02 00:26:14;;;;;;;20.30;11.60;;;11.90;91.70;;;;;;5115848;28;20223;-65
2021/04/02 00:28:40;;;;;;;20.00;12.10;;;11.80;91.70;;;;;;5116245;28;20208;-65
2021/04/02 00:31:07;;;;;;;27.27;16.23;;;11.80;91.80;;;;;;5116192;28;20243;-64
2021/04/02 00:33:34;;;;;;;27.40;16.43;;;11.80;92.40;;;;;;5115667;28;20207;-65
2021/04/02 00:36:01;;;;;;;25.90;16.30;;;11.70;92.80;;;;;;5116148;28;20238;-65
2021/04/02 00:38:28;;;;;;;25.53;14.97;;;11.50;93.30;;;;;;5116100;28;20207;-65
2021/04/02 00:40:56;;;;;;;22.97;15.03;;;11.60;93.40;;;;;;5115687;28;20335;-64
2021/04/02 00:43:25;;;;;;;23.70;14.83;;;11.60;93.20;;;;;;5115954;28;20403;-64
2021/04/02 00:45:52;;;;;;;24.27;13.77;;;11.80;93.00;;;;;;5115409;28;20220;-65
2021/04/02 00:48:18;;;;;;;25.33;14.63;;;11.90;92.80;;;;;;5114976;28;20579;-65
2021/04/02 00:50:48;;;;;;;23.40;13.47;;;11.90;92.90;;;;;;5115631;28;20626;-65
2021/04/02 00:53:15;;;;;;;27.37;15.00;;;11.90;92.90;;;;;;5115496;28;20212;-67
2021/04/02 00:55:43;;;;;;;26.30;16.87;;;12.00;92.80;;;;;;5114719;28;20234;-64
2021/04/02 00:58:11;;;;;;;24.63;16.57;;;12.00;92.90;;;;;;5114831;28;20586;-65
2021/04/02 01:00:38;;;;;;;25.90;15.47;;;12.00;93.10;;;;;;5115462;28;20213;-64
2021/04/02 01:03:05;;;;;;;25.77;15.13;;;11.90;93.10;;;;;;5115927;28;20322;-66
2021/04/02 01:05:35;;;;;;;23.70;14.80;;;12.00;93.20;;;;;;5115463;28;20219;-66
2021/04/02 01:08:05;;;;;;;21.70;14.63;;;11.90;93.40;;;;;;5115178;28;20219;-65
2021/04/02 01:10:33;;;;;;;22.23;15.10;;;11.90;93.40;;;;;;5114451;28;20252;-65
2021/04/02 01:13:01;;;;;;;22.07;14.37;;;11.90;93.60;;;;;;5114211;28;20207;-66
2021/04/02 01:15:34;;;;;;;23.13;14.17;;;11.80;93.70;;;;;;5113913;28;20224;-67
2021/04/02 01:18:09;;;;;;;24.10;13.10;;;11.80;93.70;;;;;;5114734;28;20222;-66
2021/04/02 01:20:36;;;;;;;22.50;13.07;;;11.80;93.70;;;;;;5114378;28;20226;-67
2021/04/02 01:23:07;;;;;;;18.77;11.80;;;11.80;93.80;;;;;;5113509;28;20208;-65
2021/04/02 01:25:45;;;;;;;20.20;11.80;;;11.70;93.80;;;;;;5113306;28;20223;-66
2021/04/02 01:28:25;;;;;;;18.07;11.20;;;11.60;94.00;;;;;;5113560;28;20259;-66
2021/04/02 01:30:55;;;;;;;16.37;10.50;;;11.50;94.20;;;;;;5113222;28;20218;-66
2021/04/02 01:33:21;;;;;;;19.00;10.63;;;11.50;94.50;;;;;;5113453;28;20686;-66
2021/04/02 01:35:48;;;;;;;14.30;9.50;;;11.40;94.50;;;;;;5113604;28;20231;-66
2021/04/02 01:38:18;;;;;;;15.50;10.00;;;11.40;94.50;;;;;;5113030;28;20747;-66
2021/04/02 01:40:48;;;;;;;13.17;9.50;;;11.50;94.50;;;;;;5113673;28;20206;-65
2021/04/02 01:43:20;;;;;;;12.93;8.77;;;11.50;94.50;;;;;;5114133;28;20215;-66
2021/04/02 01:45:47;;;;;;;15.53;10.17;;;11.50;94.60;;;;;;5113973;28;20231;-65
2021/04/02 01:48:15;;;;;;;14.53;8.40;;;11.50;94.50;;;;;;5113808;28;20217;-66
2021/04/02 01:50:44;;;;;;;12.90;8.90;;;11.50;94.40;;;;;;5114142;28;20207;-65
2021/04/02 01:53:11;;;;;;;14.57;9.53;;;11.60;94.30;;;;;;5114181;28;20575;-65
2021/04/02 01:55:38;;;;;;;16.37;8.67;;;11.50;94.40;;;;;;5113590;28;20227;-66
2021/04/02 01:58:06;;;;;;;14.20;8.30;;;11.40;94.60;;;;;;5114410;28;20671;-65
2021/04/02 02:00:34;;;;;;;12.50;7.60;;;11.30;94.80;;;;;;5114105;28;20208;-65
2021/04/02 02:03:01;;;;;;;12.00;7.37;;;11.40;94.70;;;;;;5114294;28;20206;-65
2021/04/02 02:05:29;;;;;;;10.83;7.07;;;11.40;94.60;;;;;;5113451;28;20695;-65
2021/04/02 02:07:58;;;;;;;23.47;15.57;;;11.40;94.80;;;;;;5113673;28;20203;-64
2021/04/02 02:10:25;;;;;;;15.60;11.07;;;11.40;94.70;;;;;;5113987;28;20203;-65
2021/04/02 02:12:54;;;;;;;12.63;8.40;;;11.40;94.60;;;;;;5113867;28;20211;-64
2021/04/02 02:15:21;;;;;;;10.67;7.47;;;11.30;94.90;;;;;;5113548;28;20485;-66
2021/04/02 02:17:54;;;;;;;13.30;7.33;;;11.10;95.30;;;;;;5114190;28;20261;-64
2021/04/02 02:20:21;;;;;;;13.73;6.60;;;11.00;95.60;;;;;;5114633;28;20188;-66
2021/04/02 02:22:49;;;;;;;9.00;6.33;;;10.90;95.80;;;;;;5113836;28;20232;-64
2021/04/02 02:25:16;;;;;;;10.43;7.03;;;10.90;95.90;;;;;;5119593;28;20226;-65
2021/04/02 02:27:42;;;;;;;11.67;8.20;;;10.80;96.00;;;;;;5119796;28;20196;-65
2021/04/02 02:30:11;;;;;;;13.70;8.50;;;10.90;95.90;;;;;;5120302;28;20208;-66
2021/04/02 02:32:38;;;;;;;17.60;7.67;;;10.90;95.80;;;;;;5120142;28;20212;-65
2021/04/02 02:35:07;;;;;;;14.47;7.63;;;10.90;95.80;;;;;;5119957;28;20231;-64
2021/04/02 02:37:35;;;;;;;10.27;6.57;;;10.90;95.70;;;;;;5120371;28;20318;-68
2021/04/02 02:40:04;;;;;;;10.13;5.90;;;10.90;95.70;;;;;;5118044;28;20207;-64
2021/04/02 02:42:30;;;;;;;12.13;6.60;;;10.90;95.80;;;;;;5117056;28;20559;-64
2021/04/02 02:44:57;;;;;;;9.90;5.80;;;10.80;96.10;;;;;;5116446;28;20219;-64
2021/04/02 02:47:23;;;;;;;10.47;6.30;;;10.80;96.10;;;;;;5116831;28;20200;-64
2021/04/02 02:49:51;;;;;;;10.80;6.37;;;10.70;96.30;;;;;;5115996;28;20198;-64
2021/04/02 02:52:18;;;;;;;12.03;6.37;;;10.70;96.30;;;;;;5115831;28;20601;-65
2021/04/02 02:54:45;;;;;;;12.30;6.40;;;10.70;96.20;;;;;;5116357;28;20242;-64
2021/04/02 02:57:15;;;;;;;11.57;7.23;;;10.70;96.20;;;;;;5116091;28;20301;-64
2021/04/02 02:59:41;;;;;;;12.73;8.00;;;10.70;96.10;;;;;;5115675;28;20214;-64
2021/04/02 03:02:09;;;;;;;11.07;7.87;;;10.70;96.10;;;;;;5116412;28;20207;-64
2021/04/02 03:04:36;;;;;;;12.37;7.60;;;10.60;96.00;;;;;;5116001;28;20224;-64
2021/04/02 03:07:04;;;;;;;9.30;6.03;;;10.60;96.20;;;;;;5116453;28;20206;-64
2021/04/02 03:09:34;;;;;;;11.00;6.53;;;10.40;96.50;;;;;;5117343;28;20252;-64
2021/04/02 03:12:03;;;;;;;11.73;5.73;;;10.40;96.70;;;;;;5118327;28;20207;-64
2021/04/02 03:14:33;;;;;;;10.10;5.23;;;10.30;96.90;;;;;;5116503;28;20227;-64
2021/04/02 03:17:01;;;;;;;6.00;4.80;;;10.20;96.90;;;;;;5118188;28;20638;-65
2021/04/02 03:19:27;;;;;;;11.20;5.10;;;10.10;96.90;;;;;;5118819;28;20208;-64
2021/04/02 03:21:57;;;;;;;7.63;4.87;;;10.00;97.10;;;;;;5119087;28;20200;-65
2021/04/02 03:24:24;;;;;;;8.73;4.83;;;10.00;97.20;;;;;;5118478;28;20246;-64
2021/04/02 03:26:54;;;;;;;7.43;4.63;;;9.90;97.90;;;;;;5118878;28;20200;-64
2021/04/02 03:29:23;;;;;;;9.87;6.00;;;9.90;98.10;;;;;;5118919;28;20668;-64
2021/04/02 03:31:54;;;;;;;12.60;6.07;;;9.80;98.30;;;;;;5117857;28;20655;-64
2021/04/02 03:34:22;;;;;;;9.47;4.67;;;9.70;98.20;;;;;;5116584;28;20211;-65
2021/04/02 03:36:52;;;;;;;9.47;4.43;;;9.70;97.50;;;;;;5117976;28;20713;-65
2021/04/02 03:39:22;;;;;;;7.57;4.00;;;9.50;97.40;;;;;;5117341;28;20553;-65
2021/04/02 03:41:52;;;;;;;6.13;4.00;;;9.50;97.20;;;;;;5117640;28;20208;-64
2021/04/02 03:44:21;;;;;;;6.37;4.10;;;9.50;97.00;;;;;;5117360;28;20537;-65
2021/04/02 03:46:49;;;;;;;5.47;3.67;;;9.40;96.60;;;;;;5117656;28;20203;-63
2021/04/02 03:49:22;;;;;;;8.03;4.10;;;9.40;96.50;;;;;;5117970;28;20200;-64
2021/04/02 03:51:50;;;;;;;9.20;4.07;;;9.40;96.30;;;;;;5118189;28;20206;-64
2021/04/02 03:54:17;;;;;;;6.67;3.80;;;9.30;96.20;;;;;;5119108;28;20216;-64
2021/04/02 03:56:48;;;;;;;6.13;4.07;;;9.30;96.10;;;;;;5117590;28;20234;-64
2021/04/02 03:59:15;;;;;;;7.50;4.10;;;9.30;95.80;;;;;;5117152;28;20204;-64
2021/04/02 04:01:45;;;;;;;8.30;3.90;;;9.30;95.20;;;;;;5116835;28;20200;-64
2021/04/02 04:04:13;;;;;;;6.97;4.00;;;9.30;95.00;;;;;;5116554;28;20272;-63
2021/04/02 04:06:43;;;;;;;7.40;4.00;;;9.20;94.70;;;;;;5115857;28;20199;-64
2021/04/02 04:09:12;;;;;;;8.77;4.00;;;9.20;94.60;;;;;;5115088;28;20207;-64
2021/04/02 04:11:40;;;;;;;6.83;3.50;;;9.10;94.50;;;;;;5115836;28;20207;-64
2021/04/02 04:14:08;;;;;;;5.73;3.37;;;9.00;94.10;;;;;;5114438;28;20242;-65
2021/04/02 04:16:37;;;;;;;6.63;3.50;;;8.90;93.90;;;;;;5114589;28;20249;-64
2021/04/02 04:19:05;;;;;;;4.77;3.53;;;8.80;94.10;;;;;;5114470;28;20433;-64
2021/04/02 04:21:36;;;;;;;6.97;4.13;;;8.70;94.00;;;;;;5115179;28;20207;-64
2021/04/02 04:24:05;;;;;;;4.90;3.83;;;8.70;93.90;;;;;;5115361;28;20207;-64
2021/04/02 04:26:32;;;;;;;7.07;4.03;;;8.60;93.90;;;;;;5116555;28;20204;-63
2021/04/02 04:29:00;;;;;;;7.17;4.23;;;8.30;94.20;;;;;;5116246;28;20477;-63
2021/04/02 04:31:28;;;;;;;7.33;4.10;;;8.20;94.60;;;;;;5116845;28;20233;-63
2021/04/02 04:33:56;;;;;;;6.73;4.03;;;8.10;94.70;;;;;;5117012;28;20211;-63
2021/04/02 04:36:23;;;;;;;5.70;3.70;;;8.10;94.60;;;;;;5116318;28;20219;-63
2021/04/02 04:38:52;;;;;;;8.47;4.40;;;8.20;94.60;;;;;;5116666;28;20233;-63
2021/04/02 04:41:20;;;;;;;7.13;4.37;;;8.20;94.50;;;;;;5116279;28;20199;-63
2021/04/02 04:43:47;;;;;;;6.13;4.10;;;8.20;94.50;;;;;;5116523;28;20207;-63
2021/04/02 04:46:13;;;;;;;6.07;4.23;;;8.10;94.50;;;;;;5115095;28;20219;-63
2021/04/02 04:48:39;;;;;;;8.33;4.57;;;8.00;94.70;;;;;;5116532;28;20204;-63
2021/04/02 04:51:08;;;;;;;7.50;4.23;;;8.00;94.80;;;;;;5116693;28;20204;-64
2021/04/02 04:53:36;;;;;;;7.97;4.40;;;8.00;94.80;;;;;;5116289;28;20566;-63
2021/04/02 04:56:06;;;;;;;6.23;4.63;;;8.00;94.80;;;;;;5116378;28;20231;-64
2021/04/02 04:58:39;;;;;;;9.27;4.27;;;8.10;94.70;;;;;;5117002;28;20203;-64
2021/04/02 05:01:09;;;;;;;7.47;5.17;;;8.00;94.60;;;;;;5116292;28;20214;-65
2021/04/02 05:03:36;;;;;;;8.00;4.57;;;8.10;94.50;;;;;;5115561;28;20203;-63
2021/04/02 05:06:05;;;;;;;8.37;4.50;;;8.20;94.30;;;;;;5116067;28;20710;-64
2021/04/02 05:08:39;;;;;;;10.43;4.10;;;8.20;94.20;;;;;;5115990;28;20226;-64
2021/04/02 05:11:08;;;;;;;12.10;7.03;;;8.20;94.20;;;;;;5118024;28;20208;-64
2021/04/02 05:13:36;;;;;;;7.90;4.60;;;8.20;94.20;;;;;;5116175;28;20203;-63
2021/04/02 05:16:05;;;;;;;6.60;4.70;;;8.20;94.20;;;;;;5115775;28;20252;-64
2021/04/02 05:18:32;;;;;;;9.40;4.80;;;8.30;94.10;;;;;;5117621;28;20208;-64
2021/04/02 05:20:59;;;;;;;9.00;4.57;;;8.30;94.00;;;;;;5115294;28;20289;-64
2021/04/02 05:23:25;;;;;;;7.17;4.53;;;8.30;94.00;;;;;;5114633;28;20295;-64
2021/04/02 05:25:51;;;;;;;5.33;4.33;;;8.20;94.10;;;;;;5114504;28;20448;-64
2021/04/02 05:28:18;;;;;;;11.17;5.07;;;8.20;94.10;;;;;;5114581;28;20206;-64
2021/04/02 05:30:46;;;;;;;10.83;4.80;;;8.20;94.10;;;;;;5114373;28;20204;-63
2021/04/02 05:33:14;;;;;;;7.77;6.97;;;8.30;94.10;;;;;;5114337;28;20298;-63
2021/04/02 05:35:41;;;;;;;10.93;6.50;;;8.20;94.10;;;;;;5113998;28;20226;-63
2021/04/02 05:38:08;;;;;;;7.67;5.63;;;8.30;94.10;;;;;;5113992;28;20199;-64
2021/04/02 05:40:34;;;;;;;7.53;6.17;;;8.50;93.90;;;;;;5114136;28;20207;-65
2021/04/02 05:43:09;;;;;;;9.40;5.97;;;8.60;93.80;;;;;;5113507;28;20667;-64
2021/04/02 05:45:37;;;;;;;7.67;4.70;;;8.50;93.80;;;;;;5113649;28;20218;-64
2021/04/02 05:48:06;;;;;;;6.70;5.00;;;8.60;93.70;;;;;;5113607;28;20254;-64
2021/04/02 05:50:33;;;;;;;11.63;5.17;;;8.70;93.60;;;;;;5114536;28;20207;-65
2021/04/02 05:53:04;;;;;;;8.17;5.23;;;9.00;93.50;;;;;;5114597;28;20256;-64
2021/04/02 05:55:34;;;;;;;7.67;5.60;;;9.30;93.10;;;;;;5113908;28;20226;-64
2021/04/02 05:58:02;;;;;;;8.93;5.40;;;10.00;92.10;;;;;;5113905;28;20253;-64
2021/04/02 06:00:28;;;;;;;5.73;4.70;;;11.30;90.30;;;;;;5113922;28;20211;-64
2021/04/02 06:02:57;;;;;;;7.10;4.80;;;12.30;86.90;;;;;;5114188;28;20208;-64
2021/04/02 06:05:24;;;;;;;5.93;4.43;;;12.70;84.30;;;;;;5114054;28;20233;-65
2021/04/02 06:07:51;;;;;;;7.50;4.43;;;13.30;82.90;;;;;;5113569;28;20196;-65
2021/04/02 06:10:18;;;;;;;7.77;4.63;;;14.20;78.80;;;;;;5113789;28;20211;-66
2021/04/02 06:12:44;;;;;;;8.43;4.07;;;15.20;76.20;;;;;;5113365;28;20747;-65
2021/04/02 06:15:11;;;;;;;5.90;4.03;;;16.20;72.20;;;;;;5113934;28;20224;-66
2021/04/02 06:17:57;;;;;;;6.40;4.60;;;17.10;69.50;;;;;;5114009;28;20323;-66
2021/04/02 06:20:26;;;;;;;4.83;4.00;;;17.60;66.10;;;;;;5114063;28;20351;-66
2021/04/02 06:23:12;;;;;;;4.47;3.90;;;17.60;65.10;;;;;;5114613;28;20559;-66
2021/04/02 06:25:45;;;;;;;6.27;4.20;;;17.90;64.70;;;;;;5113783;28;20237;-65
2021/04/02 06:28:14;;;;;;;5.47;4.30;;;18.90;63.40;;;;;;5114386;28;20226;-65
2021/04/02 06:30:42;;;;;;;5.85;4.50;;;19.90;59.30;;;;;;5114391;28;20290;-65
2021/04/02 06:33:09;;;;;;;6.13;4.35;;;20.60;57.90;;;;;;5114502;28;20200;-65
2021/04/02 06:35:40;;;;;;;4.53;4.13;;;20.90;55.80;;;;;;5114679;28;20227;-66
2021/04/02 06:38:06;;;;;;;5.65;4.00;;;21.20;55.30;;;;;;5114439;28;20230;-66
2021/04/02 06:40:33;;;;;;;6.45;4.18;;;21.40;54.50;;;;;;5114939;28;20671;-66
2021/04/02 06:43:01;;;;;;;4.80;3.75;;;21.30;54.00;;;;;;5113661;28;20206;-66
2021/04/02 06:45:28;;;;;;;6.35;4.00;;;21.30;54.00;;;;;;5114779;28;20612;-66
2021/04/02 06:48:08;;;;;;;6.00;4.20;;;21.70;52.90;;;;;;5114136;28;20207;-65
2021/04/02 06:50:35;;;;;;;5.78;4.38;;;22.00;52.50;;;;;;5112027;28;20203;-67
2021/04/02 06:53:04;;;;;;;7.18;4.05;;;22.70;51.70;;;;;;5111713;28;20208;-65
2021/04/02 06:55:30;;;;;;;6.93;4.20;;;23.30;50.50;;;;;;5111738;28;20643;-66
2021/04/02 06:58:04;;;;;;;4.22;3.83;;;23.40;49.80;;;;;;5112144;28;20227;-65
2021/04/02 07:00:30;;;;;;;6.32;4.07;;;23.30;49.90;;;;;;5111900;28;20231;-64
2021/04/02 07:02:57;;;;;;;7.15;4.70;;;23.30;49.20;;;;;;5111711;28;20682;-66
2021/04/02 07:05:25;;;;;;;6.53;4.50;;;23.30;49.20;;;;;;5111056;28;20230;-66
2021/04/02 07:07:54;;;;;;;6.70;4.50;;;23.00;49.50;;;;;;5111260;28;20682;-69
2021/04/02 07:10:23;;;;;;;7.80;4.75;;;22.60;50.20;;;;;;5113797;28;20208;-67
2021/04/02 07:12:51;;;;;;;5.07;4.57;;;22.90;50.00;;;;;;5115401;28;20225;-67
2021/04/02 07:15:18;;;;;;;6.47;4.80;;;23.30;49.40;;;;;;5115011;28;20220;-67
2021/04/02 07:17:45;;;;;;;5.25;4.20;;;23.60;48.60;;;;;;5114918;28;20224;-67
2021/04/02 07:20:12;;;;;;;7.60;4.45;;;23.80;48.20;;;;;;5115584;28;20271;-67
2021/04/02 07:22:40;;;;;;;5.80;4.35;;;23.90;47.80;;;;;;5115565;28;20276;-69
2021/04/02 07:25:07;;;;;;;5.60;4.68;;;23.50;48.20;;;;;;5115142;28;20276;-68
2021/04/02 07:27:35;;;;;;;6.40;4.53;;;23.50;48.10;;;;;;5115061;28;20687;-67
2021/04/02 07:30:03;;;;;;;6.18;4.65;;;23.60;48.20;;;;;;5115407;28;20468;-66
2021/04/02 07:32:31;;;;;;;6.78;4.57;;;23.80;47.60;;;;;;5115870;28;20203;-67
2021/04/02 07:34:58;;;;;;;5.80;5.15;;;23.90;47.40;;;;;;5114800;28;20223;-67
2021/04/02 07:37:25;;;;;;;6.85;4.85;;;23.60;47.90;;;;;;5115266;28;20219;-67
2021/04/02 07:39:54;;;;;;;9.77;5.13;;;23.00;48.60;;;;;;5115419;28;20203;-69
2021/04/02 07:42:21;;;;;;;6.35;5.10;;;22.90;49.10;;;;;;5115247;28;20218;-70
2021/04/02 07:44:55;;;;;;;5.43;4.93;;;23.00;48.50;;;;;;5115473;28;20219;-67
2021/04/02 07:47:23;;;;;;;5.65;5.05;;;22.90;48.90;;;;;;5115786;28;20564;-67
2021/04/02 07:49:58;;;;;;;6.95;5.20;;;22.90;48.70;;;;;;5115618;28;20301;-68
2021/04/02 07:52:32;;;;;;;6.80;5.32;;;22.80;49.40;;;;;;5116296;28;20217;-67
2021/04/02 07:55:08;;;;;;;7.75;5.30;;;22.80;49.30;;;;;;5114835;28;20261;-67
2021/04/02 07:57:50;;;;;;;8.70;5.13;;;23.10;48.80;;;;;;5113542;28;20234;-67
2021/04/02 08:00:18;;;;;;;6.55;5.07;;;23.70;48.00;;;;;;5114292;28;20207;-67
2021/04/02 08:02:44;;;;;;;7.43;5.40;;;24.10;47.50;;;;;;5113715;28;20220;-68
2021/04/02 08:05:16;;;;;;;6.70;5.90;;;24.10;47.20;;;;;;5113569;28;20765;-67
2021/04/02 08:07:46;;;;;;;7.47;6.20;;;23.60;47.90;;;;;;5113802;28;20259;-71
2021/04/02 08:10:14;;;;;;;6.65;5.82;;;22.20;49.40;;;;;;5113453;28;20239;-69
2021/04/02 08:12:41;;;;;;;7.93;6.00;;;20.40;51.90;;;;;;5114343;28;20674;-68
2021/04/02 08:15:09;;;;;;;7.15;6.43;;;19.00;54.30;;;;;;5113996;28;20910;-68
2021/04/02 08:17:37;;;;;;;8.67;6.20;;;17.70;56.90;;;;;;5114351;28;20248;-66
2021/04/02 08:20:06;;;;;;;9.17;6.40;;;16.30;59.80;;;;;;5114692;28;20242;-61
2021/04/02 08:22:34;;;;;;;8.13;6.20;;;15.40;62.60;;;;;;5113370;28;20207;-66
2021/04/02 08:25:01;;;;;;;7.47;6.60;;;14.60;64.90;;;;;;5118843;28;20219;-67
2021/04/02 08:27:31;;;;;;;7.23;6.50;;;14.20;66.90;;;;;;5113294;28;20210;-67
2021/04/02 08:30:03;;;;;;;7.47;6.67;;;13.90;68.30;;;;;;5113919;28;20199;-67
2021/04/02 08:32:33;;;;;;;8.67;6.37;;;13.90;68.80;;;;;;5115543;28;20239;-68
2021/04/02 08:35:00;;;;;;;8.30;6.57;;;14.00;68.70;;;;;;5113830;28;20277;-68
2021/04/02 08:37:28;;;;;;;11.37;7.33;;;14.10;68.70;;;;;;5112843;28;20231;-68
2021/04/02 08:39:56;;;;;;;8.30;6.73;;;14.20;68.90;;;;;;5112595;28;20207;-67
2021/04/02 08:42:22;;;;;;;9.03;6.37;;;14.40;68.90;;;;;;5113644;28;20211;-66
2021/04/02 08:44:48;;;;;;;7.90;6.43;;;14.50;68.00;;;;;;5113678;28;20227;-68
2021/04/02 08:47:17;;;;;;;13.23;8.03;;;14.20;69.20;;;;;;5113589;28;20663;-65
2021/04/02 08:49:47;;;;;;;7.20;6.50;;;14.10;70.10;;;;;;5112819;28;20208;-64
2021/04/02 08:52:16;;;;;;;10.20;6.73;;;14.30;68.80;;;;;;5112761;28;20207;-66
2021/04/02 08:54:45;;;;;;;8.23;7.33;;;14.60;68.30;;;;;;5105734;22;539693;-58
2021/04/02 08:57:12;;;;;;;8.30;7.17;;;14.50;68.60;;;;;;5072553;28;20315;-58
2021/04/02 08:59:40;;;;;;;9.23;7.93;;;14.20;69.30;;;;;;5072341;28;20212;-58
2021/04/02 09:02:07;;;;;;;9.60;7.53;;;13.90;70.40;;;;;;5072176;28;20840;-57
2021/04/02 09:04:34;;;;;;;8.20;7.07;;;13.90;70.60;;;;;;5072082;28;20676;-57
2021/04/02 09:07:01;;;;;;;8.57;7.67;;;13.90;71.20;;;;;;5071995;28;20209;-60
2021/04/02 09:09:30;;;;;;;8.93;7.10;;;14.00;70.80;;;;;;5072071;28;20204;-56
2021/04/02 09:11:57;;;;;;;9.33;7.60;;;14.00;70.30;;;;;;5071927;28;20204;-58
2021/04/02 09:14:26;;;;;;;9.80;7.23;;;14.00;70.50;;;;;;5072041;28;20208;-57
2021/04/02 09:16:55;;;;;;;8.03;7.23;;;14.10;70.90;;;;;;5071701;28;20844;-57
2021/04/02 09:19:22;;;;;;;9.57;6.93;;;14.30;70.60;;;;;;5071825;28;20296;-58
2021/04/02 09:21:49;;;;;;;8.10;7.30;;;14.40;70.00;;;;;;5071681;28;20201;-58
2021/04/02 09:24:16;;;;;;;9.27;7.17;;;14.30;70.50;;;;;;5071646;28;20200;-57
2021/04/02 09:26:43;;;;;;;12.23;8.10;;;14.60;69.20;;;;;;5071569;28;20232;-57
2021/04/02 09:29:10;;;;;;;9.43;7.23;;;15.10;68.60;;;;;;5071267;28;20216;-57
2021/04/02 09:31:37;;;;;;;7.97;6.67;;;15.60;66.90;;;;;;5071885;28;20266;-58
2021/04/02 09:34:05;;;;;;;7.83;7.03;;;15.90;65.80;;;;;;5071584;28;20798;-58
2021/04/02 09:36:33;;;;;;;9.33;6.93;;;16.10;65.40;;;;;;5071592;28;20236;-57
2021/04/02 09:39:06;;;;;;;8.60;6.97;;;16.00;65.50;;;;;;5071427;28;20687;-58
2021/04/02 09:41:34;;;;;;;10.37;6.83;;;15.90;65.20;;;;;;5071599;28;20227;-57
2021/04/02 09:44:08;;;;;;;11.50;6.40;;;15.60;65.60;;;;;;5071402;28;20205;-59
2021/04/02 09:46:36;;;;;;;15.93;10.57;;;15.30;65.90;;;;;;5071311;28;20711;-57
2021/04/02 09:49:05;;;;;;;11.00;7.43;;;15.30;65.90;;;;;;5071299;28;20217;-58
2021/04/02 09:51:34;;;;;;;9.53;6.60;;;15.60;65.60;;;;;;5071440;28;20208;-58
2021/04/02 09:54:00;;;;;;;8.77;7.37;;;16.00;64.70;;;;;;5070963;28;20217;-57
2021/04/02 09:56:26;;;;;;;8.83;7.43;;;16.30;64.30;;;;;;5087378;28;20228;-58
2021/04/02 09:58:53;;;;;;;7.10;6.40;;;16.20;64.60;;;;;;5091501;28;20212;-57
2021/04/02 10:01:21;;;;;;;7.70;6.60;;;16.20;64.70;;;;;;5091589;28;20320;-57
2021/04/02 10:03:47;;;;;;;8.27;6.60;;;15.90;64.50;;;;;;5091155;28;20586;-59
2021/04/02 10:06:14;;;;;;;8.00;6.57;;;15.60;63.80;;;;;;5091361;28;20314;-57
2021/04/02 10:08:40;;;;;;;8.00;6.50;;;15.60;64.70;;;;;;5090867;28;20675;-57
2021/04/02 10:11:06;;;;;;;7.00;6.30;;;15.50;64.10;;;;;;5091452;28;20627;-58
2021/04/02 10:13:33;;;;;;;7.80;6.63;;;15.70;63.60;;;;;;5091015;28;20691;-56
2021/04/02 10:15:59;;;;;;;9.93;6.30;;;16.20;63.20;;;;;;5091481;28;20228;-59
2021/04/02 10:18:27;;;;;;;8.00;6.20;;;16.60;62.10;;;;;;5091184;28;20635;-56
2021/04/02 10:20:54;;;;;;;7.97;6.70;;;16.90;61.20;;;;;;5091451;28;20203;-57
2021/04/02 10:23:20;;;;;;;8.63;6.03;;;16.60;61.80;;;;;;5091224;28;20204;-58
2021/04/02 10:25:46;;;;;;;7.63;6.13;;;16.40;62.10;;;;;;5091472;28;20277;-57
2021/04/02 10:28:12;;;;;;;8.33;5.80;;;16.00;61.90;;;;;;5091356;28;20204;-58
2021/04/02 10:30:39;;;;;;;7.73;6.10;;;15.80;61.90;;;;;;5091505;28;20220;-57
2021/04/02 10:33:05;;;;;;;6.43;5.83;;;15.60;62.40;;;;;;5091650;28;20233;-57
2021/04/02 10:35:34;;;;;;;8.03;6.47;;;15.60;63.00;;;;;;5091319;28;20262;-59
2021/04/02 10:38:01;;;;;;;7.70;6.03;;;15.70;62.70;;;;;;5091155;28;20235;-57
2021/04/02 10:40:27;;;;;;;6.83;6.13;;;15.70;63.10;;;;;;5091496;28;20200;-57
2021/04/02 10:42:53;;;;;;;7.00;5.90;;;15.60;62.80;;;;;;5090975;28;20200;-59
2021/04/02 10:45:20;;;;;;;7.57;5.83;;;15.80;62.70;;;;;;5093255;28;20228;-58
2021/04/02 10:47:46;;;;;;;7.93;6.07;;;16.20;62.10;;;;;;5094948;28;20200;-58
2021/04/02 10:50:13;;;;;;;7.10;5.90;;;16.70;61.40;;;;;;5094846;28;20200;-58
2021/04/02 10:52:40;;;;;;;6.17;5.57;;;17.20;60.00;;;;;;5095256;28;20246;-58
2021/04/02 10:55:08;;;;;;;8.53;6.30;;;17.60;59.10;;;;;;5094420;28;20733;-58
2021/04/02 10:57:34;;;;;;;7.57;5.50;;;17.30;59.00;;;;;;5094525;28;20703;-59
2021/04/02 11:00:00;;;;;;;8.70;5.87;;;17.00;59.80;;;;;;5094788;28;20208;-57
2021/04/02 11:02:26;;;;;;;7.33;6.07;;;16.70;59.50;;;;;;5094659;28;20206;-58
2021/04/02 11:04:53;;;;;;;8.33;6.27;;;16.50;60.00;;;;;;5094171;28;20231;-58
2021/04/02 11:07:19;;;;;;;6.37;5.77;;;16.50;60.50;;;;;;5094618;28;20204;-58
2021/04/02 11:09:46;;;;;;;6.80;5.60;;;16.70;60.20;;;;;;5094559;28;20867;-58
2021/04/02 11:12:12;;;;;;;9.90;6.00;;;17.10;58.90;;;;;;5094602;28;20573;-58
2021/04/02 11:14:38;;;;;;;7.83;5.57;;;17.70;58.50;;;;;;5094106;28;20687;-57
2021/04/02 11:17:05;;;;;;;8.33;5.77;;;17.80;57.90;;;;;;5094433;28;20216;-58
2021/04/02 11:19:31;;;;;;;6.67;5.97;;;17.70;57.90;;;;;;5094025;28;20207;-56
2021/04/02 11:21:57;;;;;;;6.70;6.00;;;17.60;57.60;;;;;;5094333;28;20392;-57
2021/04/02 11:24:24;;;;;;;6.87;6.13;;;17.10;58.00;;;;;;5094142;28;20374;-58
2021/04/02 11:26:51;;;;;;;7.37;5.70;;;16.80;58.30;;;;;;5094277;28;20212;-59
2021/04/02 11:29:17;;;;;;;7.20;5.50;;;16.70;58.80;;;;;;5094002;28;20208;-59
2021/04/02 11:31:43;;;;;;;8.23;5.77;;;16.60;58.50;;;;;;5094161;28;20725;-58
2021/04/02 11:34:10;;;;;;;8.40;5.60;;;16.40;58.70;;;;;;5094070;28;20590;-58
2021/04/02 11:36:36;;;;;;;6.77;5.67;;;16.40;58.30;;;;;;5093993;28;20228;-57
2021/04/02 11:39:03;;;;;;;5.93;5.33;;;16.30;58.50;;;;;;5094079;28;20200;-58
2021/04/02 11:41:29;;;;;;;5.13;4.63;;;16.40;59.30;;;;;;5093945;28;20204;-58
2021/04/02 11:43:56;;;;;;;6.50;4.93;;;16.40;58.90;;;;;;5093750;28;20578;-58
2021/04/02 11:46:22;;;;;;;6.27;4.77;;;16.30;58.80;;;;;;5093754;28;20228;-56
2021/04/02 11:48:48;;;;;;;8.87;5.27;;;16.40;58.00;;;;;;5093539;28;20208;-59
2021/04/02 11:51:15;;;;;;;6.27;4.87;;;16.40;57.90;;;;;;5094188;28;20211;-58
2021/04/02 11:53:41;;;;;;;6.17;4.47;;;16.40;57.10;;;;;;5093973;28;20209;-57
2021/04/02 11:56:07;;;;;;;5.20;4.70;;;16.30;57.00;;;;;;5093841;28;20247;-62
2021/04/02 11:58:33;;;;;;;5.00;4.50;;;16.10;57.30;;;;;;5093829;28;20224;-60
2021/04/02 12:01:00;;;;;;;6.17;4.20;;;16.00;58.10;;;;;;5093667;28;20204;-60
2021/04/02 12:03:27;;;;;;;4.70;4.30;;;15.90;57.70;;;;;;5093371;28;20687;-60
2021/04/02 12:05:53;;;;;;;5.00;4.50;;;15.90;57.50;;;;;;5093683;28;20487;-61
2021/04/02 12:08:19;;;;;;;5.67;4.27;;;15.90;58.30;;;;;;5093632;28;20215;-60
2021/04/02 12:10:46;;;;;;;5.80;4.40;;;15.70;58.10;;;;;;5093512;28;20212;-60
2021/04/02 12:13:12;;;;;;;5.90;4.30;;;15.90;58.20;;;;;;5093263;28;20212;-60
2021/04/02 12:15:38;;;;;;;4.23;3.83;;;15.90;58.20;;;;;;5092997;28;20232;-61
2021/04/02 12:18:06;;;;;;;22.20;17.23;;;16.00;58.10;;;;;;5093018;28;20216;-61
2021/04/02 12:20:33;;;;;;;5.07;4.03;;;16.20;58.00;;;;;;5093505;28;20208;-58
2021/04/02 12:22:59;;;;;;;4.53;3.93;;;16.50;57.20;;;;;;5093173;28;20257;-60
2021/04/02 12:25:25;;;;;;;4.43;3.90;;;16.40;57.00;;;;;;5093027;28;20649;-61
2021/04/02 12:27:52;;;;;;;4.50;4.10;;;16.20;57.30;;;;;;5093089;28;20201;-60
2021/04/02 12:30:19;;;;;;;3.77;3.43;;;16.10;57.30;;;;;;5092991;28;20297;-60
2021/04/02 12:32:45;;;;;;;4.70;3.67;;;16.20;57.10;;;;;;5093033;28;20207;-59
2021/04/02 12:35:13;;;;;;;4.30;3.70;;;16.30;57.50;;;;;;5092848;28;20301;-61
2021/04/02 12:37:39;;;;;;;4.27;3.47;;;16.30;56.90;;;;;;5092745;28;20228;-60
2021/04/02 12:40:10;;;;;;;4.37;3.80;;;16.30;57.30;;;;;;5092869;28;20606;-61
2021/04/02 12:42:36;;;;;;;5.37;3.83;;;16.40;57.70;;;;;;5092729;28;20208;-60
2021/04/02 12:45:03;;;;;;;5.33;3.50;;;16.50;57.10;;;;;;5092446;28;20598;-61
2021/04/02 12:47:30;;;;;;;4.00;3.60;;;16.60;57.00;;;;;;5093091;28;20467;-60
2021/04/02 12:49:56;;;;;;;3.80;3.40;;;16.70;56.60;;;;;;5092620;28;20601;-61